Time,TemperatureF,DewpointF,PressureIn,WindDirection,WindDirectionDegrees,WindSpeedMPH,WindSpeedGustMPH,Humidity,HourlyPrecipIn,Conditions,Clouds,dailyrainin,SoftwareType,DateUTC
2013-09-15 00:12:00,67.0,-99.9,-100.00,ENE,74,2.0,4.0,-999,-99.99,,,-99.99,,2013-09-15 06:12:00,
2013-09-15 00:22:00,67.0,-99.9,-100.00,ENE,74,2.0,4.0,-999,-99.99,,,-99.99,,2013-09-15 06:22:00,
2013-09-15 00:50:00,64.0,-99.9,-100.00,North,1,0.0,1.0,-999,-99.99,,,-99.99,,2013-09-15 06:50:00,
2013-09-15 01:22:00,65.0,-99.9,-100.00,ESE,110,0.0,2.0,-999,-99.99,,,-99.99,,2013-09-15 07:22:00,
2013-09-15 01:42:00,64.0,-99.9,-100.00,North,1,0.0,1.0,-999,-99.99,,,-99.99,,2013-09-15 07:42:00,
2013-09-15 02:10:00,65.0,-99.9,-100.00,ESE,104,1.0,2.0,-999,-99.99,,,-99.99,,2013-09-15 08:10:00,
2013-09-15 02:52:00,65.0,-99.9,-100.00,ESE,104,1.0,2.0,-999,-99.99,,,-99.99,,2013-09-15 08:52:00,
2013-09-15 03:02:00,65.0,-99.9,-100.00,ESE,104,1.0,2.0,-999,-99.99,,,-99.99,,2013-09-15 09:02:00,
2013-09-15 03:54:00,65.0,-99.9,-100.00,East,86,2.0,5.0,-999,-99.99,,,-99.99,,2013-09-15 09:54:00,
2013-09-15 04:03:00,65.0,-99.9,-100.00,East,86,2.0,5.0,-999,-99.99,,,-99.99,,2013-09-15 10:03:00,
2013-09-15 04:13:00,65.0,-99.9,-100.00,East,86,2.0,5.0,-999,-99.99,,,-99.99,,2013-09-15 10:13:00,
2013-09-15 04:23:00,65.0,-99.9,-100.00,North,350,0.0,0.0,-999,-99.99,,,-99.99,,2013-09-15 10:23:00,
2013-09-15 04:43:00,65.0,-99.9,-100.00,NE,44,1.0,1.0,-999,-99.99,,,-99.99,,2013-09-15 10:43:00,
2013-09-15 04:53:00,65.0,-99.9,-100.00,NE,44,1.0,1.0,-999,-99.99,,,-99.99,,2013-09-15 10:53:00,
2013-09-15 05:12:00,62.0,-99.9,-100.00,NE,38,0.0,3.0,-999,-99.99,,,-99.99,,2013-09-15 11:12:00,
2013-09-15 05:22:00,62.0,-99.9,-100.00,NE,38,0.0,3.0,-999,-99.99,,,-99.99,,2013-09-15 11:22:00,
2013-09-15 05:52:00,62.0,-99.9,-100.00,WNW,300,0.0,3.0,-999,-99.99,,,-99.99,,2013-09-15 11:52:00,
2013-09-15 06:12:00,62.0,-99.9,-100.00,WNW,301,0.0,1.0,-999,-99.99,,,-99.99,,2013-09-15 12:12:00,
2013-09-15 06:22:00,60.0,-99.9,-100.00,ENE,72,2.0,2.0,-999,-99.99,,,-99.99,,2013-09-15 12:22:00,
2013-09-15 06:42:00,62.0,-99.9,-100.00,North,351,0.0,1.0,-999,-99.99,,,-99.99,,2013-09-15 12:42:00,
2013-09-15 06:52:00,62.0,-99.9,-100.00,North,351,0.0,1.0,-999,-99.99,,,-99.99,,2013-09-15 12:52:00,
2013-09-15 08:12:00,62.0,-99.9,-100.00,North,6,0.0,1.0,-999,-99.99,,,-99.99,,2013-09-15 14:12:00,
2013-09-15 08:22:00,64.0,-99.9,-100.00,NNW,332,1.0,2.0,-999,-99.99,,,-99.99,,2013-09-15 14:22:00,
2013-09-15 14:22:00,81.0,-99.9,-100.00,ESE,107,4.0,6.0,-999,-99.99,,,-99.99,,2013-09-15 20:22:00,
2013-09-15 14:32:00,81.0,-99.9,-100.00,ESE,107,4.0,6.0,-999,-99.99,,,-99.99,,2013-09-15 20:32:00,
2013-09-15 14:42:00,81.0,-99.9,-100.00,ESE,107,4.0,6.0,-999,-99.99,,,-99.99,,2013-09-15 20:42:00,
2013-09-15 15:10:00,80.0,-99.9,-100.00,ENE,78,2.0,4.0,-999,-99.99,,,-99.99,,2013-09-15 21:10:00,
2013-09-15 15:54:00,80.0,-99.9,-100.00,ENE,78,2.0,4.0,-999,-99.99,,,-99.99,,2013-09-15 21:54:00,
2013-09-15 16:04:00,80.0,-99.9,-100.00,ENE,78,2.0,4.0,-999,-99.99,,,-99.99,,2013-09-15 22:04:00,
2013-09-15 17:42:00,77.0,-99.9,-100.00,East,98,3.0,3.0,-999,-99.99,,,-99.99,,2013-09-15 23:42:00,
2013-09-15 17:53:00,77.0,-99.9,-100.00,East,98,3.0,3.0,-999,-99.99,,,-99.99,,2013-09-15 23:53:00,
2013-09-15 18:20:00,79.0,-99.9,-100.00,ENE,77,2.0,3.0,-999,-99.99,,,-99.99,,2013-09-16 00:20:00,
2013-09-15 19:12:00,79.0,-99.9,-100.00,ENE,77,2.0,3.0,-999,-99.99,,,-99.99,,2013-09-16 01:12:00,
2013-09-15 20:12:00,73.0,-99.9,-100.00,NE,38,2.0,3.0,-999,-99.99,,,-99.99,,2013-09-16 02:12:00,
2013-09-15 20:55:00,71.0,-99.9,-100.00,ENE,66,1.0,2.0,-999,-99.99,,,-99.99,,2013-09-16 02:55:00,
2013-09-15 21:40:00,70.0,-99.9,-100.00,East,89,0.0,1.0,-999,-99.99,,,-99.99,,2013-09-16 03:40:00,
2013-09-15 21:45:00,71.0,-99.9,-100.00,ENE,66,1.0,2.0,-999,-99.99,,,-99.99,,2013-09-16 03:45:00,
2013-09-15 22:24:00,70.0,-99.9,-100.00,East,89,0.0,1.0,-999,-99.99,,,-99.99,,2013-09-16 04:24:00,
2013-09-15 22:34:00,70.0,-99.9,-100.00,East,89,0.0,1.0,-999,-99.99,,,-99.99,,2013-09-16 04:34:00,
2013-09-15 22:54:00,71.0,-99.9,-100.00,NE,49,1.0,1.0,-999,-99.99,,,-99.99,,2013-09-16 04:54:00,
2013-09-15 23:13:00,71.0,-99.9,-100.00,ESE,106,1.0,1.0,-999,-99.99,,,-99.99,,2013-09-16 05:13:00,
2013-09-15 23:44:00,69.0,-99.9,-100.00,North,1,1.0,1.0,-999,-99.99,,,-99.99,,2013-09-16 05:44:00,